createdAt,value
2022-10-06T00:04:49.296Z,32.42809364548495
2022-10-06T00:11:17.366Z,42.802675585284284
2022-10-06T00:17:44.962Z,55.31438127090301
2022-10-06T00:28:09.473Z,98.24749163879599
2022-10-06T00:34:36.896Z,121.22408026755853
2022-10-06T00:41:03.518Z,114.2809364548495
2022-10-06T00:47:31.257Z,136.41471571906354
2022-10-06T00:53:59.034Z,127.5551839464883
2022-10-06T01:00:26.160Z,98.09698996655518
2022-10-06T01:06:53.520Z,100.15384615384616
2022-10-06T01:13:20.662Z,79.5752508361204
2022-10-06T01:19:48.872Z,83.06688963210702
2022-10-06T01:26:26.226Z,83.54849498327759
2022-10-06T01:32:52.833Z,90.96321070234114
2022-10-06T01:39:19.929Z,94.1638795986622
2022-10-06T01:45:47.415Z,71.02675585284281
2022-10-06T02:02:40.142Z,74.18729096989966
2022-10-06T02:09:07.581Z,70.89632107023411
2022-10-06T02:17:59.034Z,89.88963210702342
2022-10-06T02:24:34.757Z,81.93311036789298
2022-10-06T02:31:02.053Z,100.74581939799332
2022-10-06T02:37:29.441Z,89.8695652173913
2022-10-06T02:43:56.641Z,91.43478260869566
2022-10-06T02:50:30.081Z,106.60535117056857
2022-10-06T02:56:56.942Z,95.23745819397993
2022-10-06T03:03:24.796Z,92.45819397993311
2022-10-06T03:09:52.662Z,99.35117056856187
2022-10-06T03:22:25.599Z,118.78595317725753
2022-10-06T03:28:59.106Z,144.1505016722408
2022-10-06T03:35:26.750Z,139.97658862876253
2022-10-06T03:41:54.452Z,118.32441471571906
2022-10-06T03:48:21.813Z,141.1103678929766
2022-10-06T03:54:49.495Z,136.54515050167225
2022-10-06T04:01:18.431Z,161.1571906354515
2022-10-06T04:07:47.379Z,182.20735785953178
2022-10-06T04:14:16.282Z,181.86622073578596
2022-10-06T04:20:45.245Z,157.08361204013377
2022-10-06T04:27:13.436Z,209.57859531772576
2022-10-06T04:35:29.070Z,169.48494983277592
2022-10-06T04:42:00.290Z,158.5284280936455
2022-10-06T04:48:36.242Z,181.39464882943145
2022-10-06T04:55:10.290Z,179.35785953177256
2022-10-06T05:07:10.215Z,183.69230769230768
2022-10-06T05:13:37.932Z,188.27759197324414
2022-10-06T05:32:04.303Z,194.53846153846155
2022-10-06T05:44:07.812Z,199.0133779264214
2022-10-06T05:50:36.126Z,210.08026755852842
2022-10-06T06:02:10.535Z,227.94983277591973
2022-10-06T06:11:48.082Z,214.79598662207357
2022-10-06T06:18:15.677Z,218.76923076923077
2022-10-06T06:25:02.222Z,227.04682274247492
2022-10-06T06:31:43.542Z,242.07692307692307
2022-10-06T06:38:24.159Z,215.6789297658863
2022-10-06T06:49:12.694Z,226.99665551839465
2022-10-06T06:55:52.880Z,243.30100334448161
2022-10-06T07:02:32.657Z,221.5685618729097
2022-10-06T07:12:48.866Z,211.24414715719064
2022-10-06T07:27:10.469Z,210.30100334448161
2022-10-06T07:33:50.105Z,196.47491638795987
2022-10-06T07:40:29.485Z,178.5351170568562
2022-10-06T07:47:10.496Z,176.85953177257525
2022-10-06T07:53:51.313Z,185.6789297658863
2022-10-06T08:07:13.929Z,271.5652173913044
2022-10-06T08:13:55.757Z,224.69899665551839
2022-10-06T08:20:26.056Z,208.8963210702341
2022-10-06T08:29:50.366Z,253.11371237458195
2022-10-06T08:36:18.367Z,229.11371237458195
2022-10-06T08:42:48.937Z,224.247491638796
2022-10-06T08:49:16.491Z,240.89297658862876
2022-10-06T09:00:04.455Z,190.1839464882943
2022-10-06T09:06:32.078Z,222.1103678929766
2022-10-06T09:12:59.411Z,222.29096989966555
2022-10-06T09:19:30.005Z,200.51839464882943
2022-10-06T09:26:03.837Z,193.35451505016724
2022-10-06T09:32:34.047Z,209.78929765886286
2022-10-06T09:40:18.976Z,235.91638795986623
2022-10-06T09:46:54.207Z,221.0267558528428
2022-10-06T09:53:22.519Z,213.2608695652174
2022-10-06T10:00:01.754Z,212.76923076923077
2022-10-06T10:06:44.355Z,206.26755852842808
2022-10-06T10:18:23.813Z,214.2742474916388
2022-10-06T10:25:14.352Z,182.62876254180603
2022-10-06T10:31:57.820Z,211.93645484949832
2022-10-06T10:38:37.111Z,219.55183946488293
2022-10-06T10:45:15.159Z,222.40133779264215
2022-10-06T10:51:44.960Z,210.34113712374582
2022-10-06T10:58:12.765Z,221.96989966555185
2022-10-06T11:09:06.476Z,266.7692307692308
2022-10-06T11:16:49.302Z,224.1170568561873
2022-10-06T11:23:17.686Z,221.438127090301
2022-10-06T11:30:33.720Z,192.95317725752508
2022-10-06T11:37:03.124Z,192.35117056856188
2022-10-06T11:43:33.578Z,196.71571906354515
2022-10-06T11:50:03.769Z,205.5953177257525
2022-10-06T12:02:11.836Z,212.29765886287626
2022-10-06T12:08:47.392Z,187.69565217391303
2022-10-06T12:23:03.841Z,204.42140468227424
2022-10-06T12:29:35.736Z,182.8695652173913
2022-10-06T12:36:03.965Z,219.35117056856188
2022-10-06T12:42:31.490Z,172.82608695652175
2022-10-06T12:49:01.604Z,160.67558528428094
2022-10-06T12:55:32.695Z,206.1170568561873
2022-10-06T13:02:03.117Z,242.26755852842808
2022-10-06T13:08:39.613Z,175.69565217391303
2022-10-06T13:15:23.529Z,245.27759197324414
2022-10-06T13:21:54.178Z,221.18729096989966
2022-10-06T13:28:25.478Z,255.01003344481606
2022-10-06T13:35:54.018Z,285.72240802675583
2022-10-06T13:42:25.540Z,279.05016722408027
2022-10-06T13:48:56.877Z,205.66555183946488
2022-10-06T13:55:26.438Z,188.79933110367892
2022-10-06T14:01:54.892Z,155.18729096989966
2022-10-06T14:15:26.473Z,155.87959866220737
2022-10-06T14:22:01.578Z,173.47826086956522
2022-10-06T14:28:46.072Z,176.50836120401337
2022-10-06T14:35:14.977Z,198.85284280936455
2022-10-06T14:41:43.360Z,185.1772575250836
2022-10-06T14:48:12.638Z,148.79598662207357
2022-10-06T14:54:43.643Z,128.51839464882943
2022-10-06T15:01:11.239Z,156.35117056856188
2022-10-06T15:07:38.923Z,178.33444816053512
2022-10-06T15:23:23.551Z,135.18060200668896
2022-10-06T15:32:44.732Z,174.89297658862876
2022-10-06T15:41:43.406Z,182.78929765886286
2022-10-06T15:48:11.537Z,166.12374581939798
2022-10-06T15:54:42.038Z,253.05351170568562
2022-10-06T16:01:12.907Z,249.02006688963212
2022-10-06T16:07:44.977Z,217.15384615384616
2022-10-06T16:14:36.855Z,310.3745819397993
2022-10-06T16:21:11.519Z,226.06354515050168
2022-10-06T16:28:09.633Z,254.96989966555185
2022-10-06T16:34:51.140Z,267.44147157190633
2022-10-06T16:41:37.642Z,330.44147157190633
2022-10-06T16:48:50.889Z,367.2842809364549
2022-10-06T17:00:22.741Z,268.80602006688963
2022-10-06T17:13:21.554Z,466.74581939799333
2022-10-06T17:26:19.143Z,414.74247491638795
2022-10-06T17:33:59.953Z,438.2207357859532
2022-10-06T17:55:05.297Z,397.7257525083612
2022-10-06T18:01:36.263Z,421.38461538461536
2022-10-06T18:08:10.815Z,411.83277591973246
2022-10-06T18:14:39.856Z,594.6923076923077
2022-10-06T18:21:09.638Z,516.0501672240803
2022-10-06T18:27:44.548Z,575.4882943143813
2022-10-06T18:36:10.947Z,714.6822742474916
2022-10-06T18:43:36.707Z,714.7725752508361
2022-10-06T18:52:23.743Z,652.3946488294314
2022-10-06T18:58:55.618Z,730.8260869565217
2022-10-06T19:05:24.931Z,645.3311036789298
2022-10-06T19:16:40.025Z,553.886287625418
2022-10-06T19:23:12.048Z,576.551839464883
2022-10-06T19:35:10.153Z,580.5652173913044
2022-10-06T19:41:40.086Z,769.1739130434783
2022-10-06T19:48:14.021Z,566.8996655518395
2022-10-06T19:54:50.850Z,542.8996655518395
2022-10-06T20:01:46.767Z,576.8729096989966
2022-10-06T20:08:38.464Z,537.0702341137123
2022-10-06T20:15:34.617Z,526.5351170568562
2022-10-06T20:24:16.686Z,545.5484949832776
2022-10-06T20:31:00.962Z,545.247491638796
2022-10-06T20:42:58.615Z,566.0969899665552
2022-10-06T20:49:28.015Z,596.3979933110368
2022-10-06T20:55:58.785Z,612.4916387959867
2022-10-06T21:02:29.042Z,610.9665551839465
2022-10-06T21:08:57.340Z,645.5418060200669
2022-10-06T21:15:26.409Z,719.7491638795987
2022-10-06T21:23:28.673Z,777.4113712374582
2022-10-06T21:30:01.149Z,901.9364548494983
2022-10-06T21:36:35.349Z,1023.4214046822742
2022-10-06T21:43:09.047Z,875.8595317725752
2022-10-06T21:55:16.737Z,1221.1404682274247
2022-10-06T22:01:46.578Z,1000.5551839464883
2022-10-06T22:13:49.309Z,1200.3511705685619
2022-10-06T22:28:57.848Z,1422.200668896321
2022-10-06T22:40:26.185Z,1153.0434782608695
2022-10-06T22:46:54.298Z,1188.190635451505
2022-10-06T22:58:13.438Z,1166.799331103679
2022-10-06T23:04:43.696Z,1268.799331103679
2022-10-06T23:11:16.513Z,1231.7558528428094
2022-10-06T23:17:54.922Z,1310.9598662207359
2022-10-06T23:24:23.769Z,1288.8862876254182
2022-10-06T23:33:46.689Z,1310.0167224080267
2022-10-06T23:40:13.719Z,1300.2341137123747
2022-10-06T23:46:46.557Z,1340.3678929765886
2022-10-06T23:58:01.263Z,1407.3110367892978
